Date,TemperatureHighF,TemperatureAvgF,TemperatureLowF,DewpointHighF,DewpointAvgF,DewpointLowF,HumidityHigh,HumidityAvg,HumidityLow,PressureMaxIn,PressureMinIn,WindSpeedMaxMPH,WindSpeedAvgMPH,GustSpeedMaxMPH,PrecipitationSumIn
2013-7-1,101.3,90.4,79.2,58.6,54.7,51.2,44,31,22,29.65,29.58,7,3,16,0.00
2013-7-2,100.4,88.8,79.5,60.5,52.5,46.5,38,29,22,29.78,29.63,9,3,18,0.00
2013-7-3,102.6,91.2,80.0,54.4,50.7,45.7,30,26,20,29.70,29.52,8,3,21,0.00
2013-7-4,100.7,89.8,78.8,56.8,50.8,43.4,32,27,22,29.58,29.47,9,4,21,0.00
2013-7-5,94.7,85.5,77.3,59.5,51.7,42.8,42,32,24,29.60,29.50,10,5,22,0.00
2013-7-6,99.1,86.6,71.9,55.1,50.9,36.5,50,31,17,29.62,29.51,7,3,18,0.00
2013-7-7,99.3,88.9,75.1,51.2,42.6,34.4,25,20,16,29.64,29.54,7,3,17,0.00
2013-7-8,101.5,88.6,72.9,47.3,41.0,34.4,26,19,14,29.77,29.63,6,3,17,0.00
2013-7-9,96.8,86.2,77.0,65.4,49.2,35.0,65,29,20,29.84,29.73,7,3,17,0.00
2013-7-10,93.5,83.6,71.5,67.6,57.7,44.1,79,43,25,29.78,29.66,7,3,16,0.00
2013-7-11,82.4,76.1,71.3,62.9,57.4,53.2,73,53,40,29.80,29.70,6,2,14,0.01
2013-7-12,90.9,81.1,72.0,59.4,55.5,51.2,60,42,33,29.79,29.66,6,2,14,0.00
2013-7-13,96.4,84.8,71.1,59.7,53.0,46.6,51,34,27,29.78,29.66,6,2,13,0.00
2013-7-14,98.3,87.1,74.9,57.1,51.4,45.0,40,30,23,29.75,29.61,6,2,14,0.00
2013-7-15,96.5,85.6,73.5,55.2,49.7,39.9,41,30,24,29.65,29.53,11,4,22,0.00
2013-7-16,91.8,81.9,71.1,43.4,38.5,32.9,30,22,13,29.77,29.62,7,3,18,0.00
2013-7-17,94.7,81.7,66.4,38.2,33.3,27.8,25,18,11,29.87,29.77,5,3,15,0.00
2013-7-18,99.2,86.3,70.8,44.7,36.0,28.0,21,17,14,29.82,29.67,6,3,14,0.00
2013-7-19,93.7,85.0,78.7,69.6,51.8,32.0,53,33,18,29.71,29.59,9,4,24,0.00
2013-7-20,89.5,79.2,71.2,68.9,65.5,59.0,88,64,45,29.71,29.60,7,3,15,0.01
2013-7-21,81.2,74.5,68.3,67.2,64.7,60.8,84,72,61,29.79,29.65,7,3,16,0.03
2013-7-22,82.3,75.1,68.0,66.9,64.0,59.8,86,69,55,29.85,29.75,7,2,14,0.09
2013-7-23,93.2,81.2,67.9,63.5,60.7,57.7,74,52,36,29.85,29.71,5,2,13,0.00
2013-7-24,97.2,85.6,72.9,61.6,57.4,51.4,55,40,30,29.76,29.64,6,2,15,0.00
2013-7-25,94.2,85.2,75.0,60.3,54.4,48.0,41,35,28,29.84,29.69,9,4,23,0.00
2013-7-26,88.3,81.6,77.4,65.4,59.8,52.8,62,48,40,29.89,29.78,6,2,14,0.00
2013-7-27,93.9,83.2,72.8,62.2,58.7,53.9,58,44,32,29.83,29.65,6,2,15,0.00
2013-7-28,95.1,83.7,73.4,54.2,49.0,41.0,44,31,22,29.69,29.58,9,3,21,0.00
2013-7-29,92.9,82.2,70.1,50.3,40.5,26.1,42,24,16,29.81,29.66,7,3,16,0.00
2013-7-30,94.5,82.6,68.7,55.6,49.2,42.6,42,32,24,29.88,29.80,7,3,16,0.00
2013-7-31,94.5,83.4,70.3,57.4,50.3,35.8,54,34,20,29.86,29.74,7,3,18,0.00